Time;durP1;ratioP1;P1;durP2;ratioP2;P2;SDS_P1;SDS_P2;PMS_P1;PMS_P2;Temp;Humidity;BMP_temperature;BMP_pressure;BME280_temperature;BME280_humidity;BME280_pressure;Samples;Min_cycle;Max_cycle;Signal;HPM_P1;HPM_P2
2023/11/28 00:00:18;;;;;;;;;;;7.20;70.50;;;2.49;100.00;93515.75;4970223;28;20372;-48
2023/11/28 00:02:43;;;;;;;;;;;7.20;70.50;;;2.54;100.00;93520.22;4986964;28;19914;-54
2023/11/28 00:05:09;;;;;;;;;;;7.20;70.50;;;2.47;100.00;93523.09;4985074;28;19936;-52
2023/11/28 00:07:35;;;;;;;;;;;7.20;70.50;;;2.46;100.00;93518.91;4989842;28;20008;-48
2023/11/28 00:10:02;;;;;;;;;;;7.20;70.50;;;2.50;100.00;93524.41;4987756;28;20000;-51
2023/11/28 00:12:29;;;;;;;;;;;7.10;70.40;;;2.51;100.00;93526.81;4990359;28;19913;-48
2023/11/28 00:14:55;;;;;;;;;;;7.20;70.40;;;2.49;100.00;93526.25;4988423;28;19955;-50
2023/11/28 00:17:21;;;;;;;;;;;7.10;70.40;;;2.48;100.00;93516.81;4990488;28;20340;-49
2023/11/28 00:19:47;;;;;;;;;;;7.10;70.40;;;2.47;100.00;93522.31;4989834;28;19916;-49
2023/11/28 00:22:12;;;;;;;;;;;7.10;70.40;;;2.48;100.00;93522.06;4989268;28;19909;-54
2023/11/28 00:24:38;;;;;;;;;;;7.10;70.40;;;2.46;100.00;93518.13;4990535;28;20011;-48
2023/11/28 00:27:04;;;;;;;;;;;7.10;70.30;;;2.47;100.00;93519.69;4989236;28;20039;-48
2023/11/28 00:29:30;;;;;;;;;;;7.10;70.40;;;2.42;100.00;93511.81;4989942;28;19910;-54
2023/11/28 00:31:56;;;;;;;;;;;7.10;70.40;;;2.42;100.00;93503.94;4988694;28;19940;-58
2023/11/28 00:34:24;;;;;;;;;;;7.10;70.30;;;2.40;100.00;93503.41;4988649;28;19916;-48
2023/11/28 00:36:50;;;;;;;;;;;7.10;70.30;;;2.35;100.00;93493.69;4990391;28;19909;-48
2023/11/28 00:39:16;;;;;;;;;;;7.10;70.30;;;2.37;100.00;93488.94;4988710;28;19978;-48
2023/11/28 00:41:43;;;;;;;;;;;7.00;70.30;;;2.26;100.00;93485.56;4990342;28;19959;-53
2023/11/28 00:44:10;;;;;;;;;;;7.00;70.30;;;2.28;100.00;93498.41;4988136;28;20297;-48
2023/11/28 00:46:41;;;;;;;;;;;7.00;70.30;;;2.28;100.00;93493.94;4985704;28;19909;-50
2023/11/28 00:49:08;;;;;;;;;;;7.00;70.30;;;2.26;100.00;93490.81;4988076;28;19918;-48
2023/11/28 00:51:34;;;;;;;;;;;7.00;70.30;;;2.23;100.00;93490.56;4988587;28;19960;-49
2023/11/28 00:54:00;;;;;;;;;;;7.00;70.30;;;2.18;100.00;93490.53;4989738;28;19916;-53
2023/11/28 00:56:26;;;;;;;;;;;7.00;70.30;;;2.15;100.00;93494.47;4989474;28;20410;-54
2023/11/28 00:58:52;;;;;;;;;;;7.00;70.30;;;2.15;100.00;93491.84;4989738;28;19941;-56
2023/11/28 01:01:18;;;;;;;;;;;6.90;70.30;;;2.15;100.00;93488.44;4987082;28;19917;-54
2023/11/28 01:03:45;;;;;;;;;;;6.90;70.30;;;2.15;100.00;93483.97;4988862;28;20431;-55
2023/11/28 01:06:11;;;;;;;;;;;6.90;70.30;;;2.17;100.00;93483.72;4990294;28;20368;-50
2023/11/28 01:08:37;;;;;;;;;;;6.90;70.30;;;2.15;100.00;93477.94;4983837;28;19925;-50
2023/11/28 01:11:03;;;;;;;;;;;6.90;70.40;;;2.12;100.00;93478.47;4990028;28;20441;-54
2023/11/28 01:13:29;;;;;;;;;;;6.90;70.50;;;2.19;100.00;93489.47;4990004;28;20372;-50
2023/11/28 01:15:55;;;;;;;;;;;6.90;70.50;;;2.23;100.00;93485.31;4985120;28;19953;-49
2023/11/28 01:18:21;;;;;;;;;;;6.90;70.50;;;2.20;100.00;93489.22;4989867;28;19913;-50
2023/11/28 01:20:47;;;;;;;;;;;6.90;70.60;;;2.23;100.00;93486.09;4990577;28;19916;-48
2023/11/28 01:23:13;;;;;;;;;;;6.90;70.60;;;2.22;100.00;93491.59;4993461;28;19963;-56
2023/11/28 01:25:38;;;;;;;;;;;6.90;70.60;;;2.21;100.00;93490.03;4993556;28;19909;-49
2023/11/28 01:28:04;;;;;;;;;;;6.90;70.60;;;2.23;100.00;93501.06;4992023;28;20303;-49
2023/11/28 01:30:30;;;;;;;;;;;6.90;70.70;;;2.19;100.00;93497.38;4991805;28;20365;-53
2023/11/28 01:32:56;;;;;;;;;;;6.90;70.70;;;2.23;100.00;93499.22;4992204;28;20047;-50
2023/11/28 01:35:23;;;;;;;;;;;6.90;70.70;;;2.31;100.00;93495.25;4996423;28;19916;-48
2023/11/28 01:37:48;;;;;;;;;;;6.90;70.70;;;2.31;100.00;93482.13;4992749;28;20037;-51
2023/11/28 01:40:14;;;;;;;;;;;6.90;70.80;;;2.35;100.00;93491.06;4998154;28;20352;-50
2023/11/28 01:42:40;;;;;;;;;;;7.00;70.90;;;2.32;100.00;93486.34;4988633;28;19941;-49
2023/11/28 01:45:06;;;;;;;;;;;7.00;70.90;;;2.34;100.00;93481.59;4991910;28;19916;-50
2023/11/28 01:47:35;;;;;;;;;;;7.00;70.90;;;2.36;100.00;93476.88;4992947;28;20389;-51
2023/11/28 01:50:03;;;;;;;;;;;7.00;70.90;;;2.43;100.00;93473.97;4988643;28;19920;-59
2023/11/28 01:52:32;;;;;;;;;;;7.00;70.90;;;2.47;100.00;93462.66;4990947;28;19920;-47
2023/11/28 01:55:01;;;;;;;;;;;7.00;71.00;;;2.46;100.00;93461.09;4992819;28;19920;-46
2023/11/28 01:57:28;;;;;;;;;;;7.10;71.00;;;2.52;100.00;93459.25;4997791;28;20378;-53
2023/11/28 01:59:56;;;;;;;;;;;7.10;70.90;;;2.58;100.00;93460.81;4984402;28;19916;-53
2023/11/28 02:02:22;;;;;;;;;;;7.10;71.00;;;2.51;100.00;93463.72;4987668;28;19980;-48
2023/11/28 02:04:48;;;;;;;;;;;7.20;71.00;;;2.53;100.00;93458.97;4984154;28;19913;-48
2023/11/28 02:07:14;;;;;;;;;;;7.20;71.00;;;2.57;100.00;93458.44;4992248;28;19917;-50
2023/11/28 02:09:41;;;;;;;;;;;7.20;71.00;;;2.60;100.00;93450.03;4989859;28;19913;-47
2023/11/28 02:12:07;;;;;;;;;;;7.20;71.00;;;2.65;100.00;93450.03;4992214;28;19920;-50
2023/11/28 02:14:41;;;;;;;;;;;7.20;71.00;;;2.65;100.00;93456.06;4987053;28;19937;-47
2023/11/28 02:17:07;;;;;;;;;;;7.30;71.20;;;2.70;100.00;93452.66;4990989;28;20399;-51
2023/11/28 02:19:33;;;;;;;;;;;7.30;71.10;;;2.73;100.00;93447.63;4991315;28;19996;-52
2023/11/28 02:21:59;;;;;;;;;;;7.30;71.10;;;2.77;100.00;93448.66;4990924;28;19909;-47
2023/11/28 02:24:27;;;;;;;;;;;7.40;71.10;;;2.79;100.00;93437.91;4991100;28;19932;-49
2023/11/28 02:26:53;;;;;;;;;;;7.40;71.10;;;2.80;100.00;93442.09;4988888;28;20402;-49
2023/11/28 02:29:19;;;;;;;;;;;7.40;71.10;;;2.83;100.00;93443.41;4990255;28;19909;-48
2023/11/28 02:31:45;;;;;;;;;;;7.40;71.00;;;2.87;100.00;93428.66;4984186;28;19925;-48
2023/11/28 02:34:10;;;;;;;;;;;7.50;71.10;;;2.85;100.00;93425.50;4991287;28;19992;-47
2023/11/28 02:36:36;;;;;;;;;;;7.50;71.10;;;2.86;100.00;93403.44;4992133;28;20365;-52
2023/11/28 02:39:02;;;;;;;;;;;7.50;71.10;;;2.86;100.00;93409.47;4990651;28;20326;-49
2023/11/28 02:41:28;;;;;;;;;;;7.50;71.10;;;2.91;100.00;93409.44;4988243;28;19920;-47
2023/11/28 02:43:54;;;;;;;;;;;7.60;71.10;;;2.93;100.00;93407.31;4982852;28;19940;-55
2023/11/28 02:46:20;;;;;;;;;;;7.50;71.10;;;2.92;100.00;93400.50;4990755;28;19910;-54
2023/11/28 02:48:47;;;;;;;;;;;7.60;71.20;;;2.92;100.00;93410.25;4986544;28;19909;-52
2023/11/28 02:51:19;;;;;;;;;;;7.60;71.20;;;2.94;100.00;93408.09;4985416;28;19921;-51
2023/11/28 02:53:45;;;;;;;;;;;7.60;71.20;;;2.93;100.00;93394.19;4987581;28;19916;-56
2023/11/28 02:56:11;;;;;;;;;;;7.60;71.20;;;2.97;100.00;93407.56;4988725;28;19909;-55
2023/11/28 02:58:38;;;;;;;;;;;7.60;71.20;;;3.02;100.00;93394.41;4988972;28;19910;-53
2023/11/28 03:01:04;;;;;;;;;;;7.60;71.20;;;3.04;100.00;93383.59;4989555;28;19909;-53
2023/11/28 03:03:30;;;;;;;;;;;7.60;71.20;;;3.03;100.00;93382.03;4983637;28;20388;-53
2023/11/28 03:05:56;;;;;;;;;;;7.70;72.10;;;3.03;100.00;93374.94;4990326;28;19952;-54
2023/11/28 03:08:21;;;;;;;;;;;7.70;71.30;;;3.01;100.00;93374.44;4986841;28;20008;-56
2023/11/28 03:10:47;;;;;;;;;;;7.70;71.30;;;3.05;100.00;93374.66;4992476;28;19944;-57
2023/11/28 03:13:13;;;;;;;;;;;7.70;71.30;;;3.07;100.00;93378.63;4987073;28;20428;-56
2023/11/28 03:15:39;;;;;;;;;;;7.70;71.40;;;3.08;100.00;93369.66;4992270;28;20059;-57
2023/11/28 03:18:08;;;;;;;;;;;7.70;71.30;;;3.03;100.00;93368.88;4991229;28;19937;-56
2023/11/28 03:20:35;;;;;;;;;;;7.70;71.40;;;3.01;100.00;93366.53;4993033;28;19909;-52
2023/11/28 03:23:02;;;;;;;;;;;7.70;71.30;;;3.04;100.00;93373.09;4987205;28;19909;-57
2023/11/28 03:25:27;;;;;;;;;;;7.70;71.40;;;3.00;100.00;93375.47;4991161;28;19913;-56
2023/11/28 03:27:53;;;;;;;;;;;7.70;71.40;;;3.00;100.00;93378.09;4986834;28;19916;-56
2023/11/28 03:30:22;;;;;;;;;;;7.70;71.50;;;2.99;100.00;93368.66;4993309;28;20367;-56
2023/11/28 03:32:48;;;;;;;;;;;7.60;71.50;;;3.00;100.00;93368.34;4987593;28;19925;-56
2023/11/28 03:35:14;;;;;;;;;;;7.60;71.50;;;2.97;100.00;93366.28;4990044;28;19971;-56
2023/11/28 03:37:40;;;;;;;;;;;7.60;71.50;;;2.99;100.00;93368.66;4989009;28;19910;-54
2023/11/28 03:40:07;;;;;;;;;;;7.60;71.50;;;2.97;100.00;93368.91;4992046;28;19940;-54
2023/11/28 03:42:32;;;;;;;;;;;7.60;71.50;;;2.99;100.00;93374.69;4988904;28;19932;-56
2023/11/28 03:44:58;;;;;;;;;;;7.60;71.60;;;3.00;100.00;93378.88;4987078;28;19909;-57
2023/11/28 03:47:25;;;;;;;;;;;7.60;71.60;;;2.97;100.00;93368.91;4988643;28;20528;-53
2023/11/28 03:49:51;;;;;;;;;;;7.60;71.60;;;2.97;100.00;93360.22;4986417;28;20473;-49
2023/11/28 03:52:17;;;;;;;;;;;7.60;71.60;;;2.92;100.00;93349.75;4988831;28;19952;-52
2023/11/28 03:54:42;;;;;;;;;;;7.60;71.70;;;2.90;100.00;93357.13;4991192;28;19913;-51
2023/11/28 03:57:08;;;;;;;;;;;7.60;71.80;;;2.92;100.00;93362.91;4996050;28;19947;-56
2023/11/28 03:59:34;;;;;;;;;;;7.50;71.90;;;2.92;100.00;93352.38;4989353;28;19913;-56
2023/11/28 04:02:02;;;;;;;;;;;7.50;71.80;;;2.90;100.00;93360.53;4983122;28;26854;-53
2023/11/28 04:04:28;;;;;;;;;;;7.50;71.90;;;2.93;100.00;93370.50;4988898;28;19913;-57
2023/11/28 04:06:53;;;;;;;;;;;7.60;72.00;;;2.94;100.00;93371.28;4990236;28;19996;-55
2023/11/28 04:09:19;;;;;;;;;;;7.50;72.00;;;2.94;100.00;93363.41;4988930;28;19932;-55
2023/11/28 04:11:45;;;;;;;;;;;7.50;72.00;;;2.94;100.00;93372.06;4989894;28;19913;-53
2023/11/28 04:14:11;;;;;;;;;;;7.50;72.00;;;2.94;100.00;93364.19;4988403;28;20336;-53
2023/11/28 04:16:37;;;;;;;;;;;7.50;72.10;;;2.97;100.00;93368.13;4994532;28;19916;-51
2023/11/28 04:19:03;;;;;;;;;;;7.60;72.10;;;2.96;100.00;93366.56;4987145;28;19952;-57
2023/11/28 04:21:29;;;;;;;;;;;7.50;72.10;;;2.96;100.00;93371.81;4986285;28;19913;-55
2023/11/28 04:23:55;;;;;;;;;;;7.60;72.20;;;2.95;100.00;93367.63;4985972;28;19917;-55
2023/11/28 04:26:21;;;;;;;;;;;7.50;72.10;;;2.90;100.00;93363.16;4985438;28;20246;-53
2023/11/28 04:28:47;;;;;;;;;;;7.50;72.20;;;2.90;100.00;93357.91;4993830;28;19909;-54
2023/11/28 04:31:17;;;;;;;;;;;7.60;72.20;;;2.94;100.00;93369.44;4986786;28;19914;-53
2023/11/28 04:33:43;;;;;;;;;;;7.50;72.20;;;2.91;100.00;93359.47;4968689;28;19960;-51
2023/11/28 04:36:10;;;;;;;;;;;7.50;72.20;;;2.91;100.00;93356.06;4986187;28;19959;-56
2023/11/28 04:38:36;;;;;;;;;;;7.50;72.20;;;2.93;100.00;93360.00;4992547;28;19914;-51
2023/11/28 04:41:02;;;;;;;;;;;7.50;72.20;;;2.88;100.00;93361.84;4993226;28;20648;-55
2023/11/28 04:43:27;;;;;;;;;;;7.50;72.20;;;2.89;100.00;93364.22;4991241;28;19936;-53
2023/11/28 04:45:53;;;;;;;;;;;7.50;72.20;;;2.93;100.00;93372.34;4992072;28;20477;-55
2023/11/28 04:48:19;;;;;;;;;;;7.50;72.20;;;2.87;100.00;93368.97;4987535;28;19913;-57
2023/11/28 04:50:45;;;;;;;;;;;7.50;72.20;;;2.88;100.00;93369.75;4992272;28;19916;-54
2023/11/28 04:53:11;;;;;;;;;;;7.50;72.20;;;2.88;100.00;93377.63;4989089;28;19910;-55
2023/11/28 04:55:37;;;;;;;;;;;7.50;72.20;;;2.89;100.00;93374.75;4987354;28;19924;-55
2023/11/28 04:58:02;;;;;;;;;;;7.50;72.20;;;2.89;100.00;93376.59;4993577;28;20020;-55
2023/11/28 05:00:28;;;;;;;;;;;7.50;72.20;;;2.89;100.00;93381.84;4992715;28;19971;-54
2023/11/28 05:02:54;;;;;;;;;;;7.50;72.20;;;2.90;100.00;93386.81;4990895;28;19909;-54
2023/11/28 05:05:20;;;;;;;;;;;7.50;72.20;;;2.92;100.00;93386.56;4989334;28;19910;-55
2023/11/28 05:07:46;;;;;;;;;;;7.50;72.20;;;2.89;100.00;93385.25;4991743;28;20001;-57
2023/11/28 05:10:12;;;;;;;;;;;7.60;72.30;;;2.87;100.00;93386.59;4992427;28;20000;-55
2023/11/28 05:12:38;;;;;;;;;;;7.50;72.20;;;2.92;100.00;93391.84;4988464;28;20392;-54
2023/11/28 05:15:04;;;;;;;;;;;7.50;72.20;;;2.89;100.00;93400.25;4993304;28;19963;-53
2023/11/28 05:17:30;;;;;;;;;;;7.50;72.20;;;2.86;100.00;93398.94;4987029;28;19909;-49
2023/11/28 05:19:56;;;;;;;;;;;7.50;72.20;;;2.89;100.00;93385.25;4993967;28;19951;-52
2023/11/28 05:22:22;;;;;;;;;;;7.50;72.20;;;2.87;100.00;93386.59;4993617;28;19913;-55
2023/11/28 05:24:47;;;;;;;;;;;7.50;72.30;;;2.88;100.00;93391.56;4992290;28;19913;-56
2023/11/28 05:27:13;;;;;;;;;;;7.50;72.30;;;2.91;100.00;93392.88;4988950;28;19909;-54
2023/11/28 05:29:39;;;;;;;;;;;7.60;72.30;;;2.92;100.00;93389.19;4990172;28;20331;-53
2023/11/28 05:32:05;;;;;;;;;;;7.60;72.30;;;2.94;100.00;93393.09;4988032;28;20015;-57
2023/11/28 05:34:31;;;;;;;;;;;7.60;72.30;;;2.91;100.00;93393.66;4988978;28;19963;-53
2023/11/28 05:36:57;;;;;;;;;;;7.60;72.30;;;2.93;100.00;93402.06;4991475;28;20360;-57
2023/11/28 05:39:22;;;;;;;;;;;7.60;72.30;;;2.92;100.00;93400.50;4992673;28;19988;-56
2023/11/28 05:41:48;;;;;;;;;;;7.60;72.30;;;2.93;100.00;93396.81;4992876;28;19916;-57
2023/11/28 05:44:14;;;;;;;;;;;7.60;72.30;;;2.91;100.00;93411.28;4991868;28;19932;-56
2023/11/28 05:46:40;;;;;;;;;;;7.60;72.40;;;2.93;100.00;93403.91;4989813;28;20332;-57
2023/11/28 05:49:06;;;;;;;;;;;7.70;72.50;;;2.94;100.00;93405.47;4992011;28;19913;-57
2023/11/28 05:51:32;;;;;;;;;;;7.70;72.50;;;2.98;100.00;93404.69;4984418;28;20366;-56
2023/11/28 05:53:59;;;;;;;;;;;7.70;72.50;;;2.97;100.00;93403.09;4992969;28;19913;-55
2023/11/28 05:56:25;;;;;;;;;;;7.70;72.60;;;3.04;100.00;93415.16;4987250;28;19913;-53
2023/11/28 05:58:51;;;;;;;;;;;7.70;72.50;;;3.02;100.00;93415.44;4988601;28;20203;-57
2023/11/28 06:01:17;;;;;;;;;;;7.70;72.50;;;2.99;100.00;93418.63;4988343;28;20383;-56
2023/11/28 06:03:42;;;;;;;;;;;7.70;72.50;;;3.01;100.00;93419.16;4991357;28;19913;-53
2023/11/28 06:06:09;;;;;;;;;;;7.70;72.40;;;3.01;100.00;93425.19;4989510;28;20050;-56
2023/11/28 06:08:35;;;;;;;;;;;7.70;72.40;;;3.03;100.00;93426.75;4986338;28;19995;-53
2023/11/28 06:11:00;;;;;;;;;;;7.70;72.40;;;3.06;100.00;93434.09;4991462;28;20008;-55
2023/11/28 06:13:27;;;;;;;;;;;7.70;72.30;;;3.07;100.00;93433.03;4987268;28;20486;-55
2023/11/28 06:15:53;;;;;;;;;;;7.70;72.30;;;3.07;100.00;93436.47;4990408;28;19945;-57
2023/11/28 06:18:19;;;;;;;;;;;7.70;72.40;;;3.03;100.00;93435.44;4990632;28;19920;-56
2023/11/28 06:20:46;;;;;;;;;;;7.80;72.40;;;3.06;100.00;93452.53;4988047;28;20402;-57
2023/11/28 06:23:11;;;;;;;;;;;7.80;72.40;;;3.03;100.00;93453.06;4983732;28;19948;-52
2023/11/28 06:25:39;;;;;;;;;;;7.70;72.30;;;3.05;100.00;93448.31;4991142;28;19962;-56
2023/11/28 06:28:05;;;;;;;;;;;7.80;72.30;;;3.03;100.00;93453.06;4987171;28;19909;-58
2023/11/28 06:30:30;;;;;;;;;;;7.80;72.40;;;3.04;100.00;93454.63;4983997;28;19910;-57
2023/11/28 06:32:56;;;;;;;;;;;7.80;72.40;;;3.06;100.00;93442.78;4987778;28;19913;-55
2023/11/28 06:35:23;;;;;;;;;;;7.80;72.30;;;3.07;100.00;93461.97;4986999;28;20009;-56
2023/11/28 06:37:48;;;;;;;;;;;7.80;72.30;;;3.05;100.00;93456.22;4987916;28;19948;-54
2023/11/28 06:40:16;;;;;;;;;;;7.80;72.40;;;3.05;100.00;93461.47;4989875;28;20376;-56
2023/11/28 06:42:43;;;;;;;;;;;7.80;72.40;;;3.10;100.00;93466.69;4990682;28;19928;-54
2023/11/28 06:45:10;;;;;;;;;;;7.80;72.40;;;3.04;100.00;93475.66;4987951;28;19913;-55
2023/11/28 06:47:36;;;;;;;;;;;7.80;72.40;;;3.01;100.00;93477.00;4986084;28;19909;-53
2023/11/28 06:50:02;;;;;;;;;;;7.70;72.40;;;3.05;100.00;93485.16;4990262;28;19971;-56
2023/11/28 06:52:28;;;;;;;;;;;7.70;72.40;;;3.03;100.00;93488.03;4986013;28;19925;-55
2023/11/28 06:54:54;;;;;;;;;;;7.70;72.40;;;3.01;100.00;93483.06;4986584;28;19910;-56
2023/11/28 06:57:19;;;;;;;;;;;7.70;72.40;;;2.99;100.00;93495.69;4988789;28;20352;-57
2023/11/28 06:59:45;;;;;;;;;;;7.70;72.40;;;3.04;100.00;93504.59;4989275;28;19916;-58
2023/11/28 07:02:11;;;;;;;;;;;7.70;72.50;;;3.05;100.00;93509.59;4988006;28;20392;-57
2023/11/28 07:04:37;;;;;;;;;;;7.70;72.50;;;3.03;100.00;93510.94;4986957;28;20323;-57
2023/11/28 07:07:02;;;;;;;;;;;7.70;72.50;;;3.03;100.00;93521.44;4994039;28;19935;-52
2023/11/28 07:09:28;;;;;;;;;;;7.80;72.50;;;3.05;100.00;93521.97;4982260;28;19916;-56
2023/11/28 07:11:54;;;;;;;;;;;7.70;72.50;;;3.01;100.00;93527.00;4988720;28;20008;-58
2023/11/28 07:14:20;;;;;;;;;;;7.70;72.50;;;3.01;100.00;93532.25;4986046;28;19917;-60
2023/11/28 07:16:46;;;;;;;;;;;7.70;72.60;;;3.02;100.00;93525.94;4984260;28;19992;-58
2023/11/28 07:19:12;;;;;;;;;;;7.70;72.60;;;3.05;100.00;93528.03;4986326;28;20064;-58
2023/11/28 07:21:38;;;;;;;;;;;7.70;72.50;;;3.04;100.00;93531.72;4989522;28;20389;-55
2023/11/28 07:24:04;;;;;;;;;;;7.70;72.50;;;3.00;100.00;93533.28;4984591;28;19941;-56
2023/11/28 07:26:30;;;;;;;;;;;7.70;72.50;;;2.97;100.00;93539.88;4986314;28;20249;-58
2023/11/28 07:28:56;;;;;;;;;;;7.70;72.50;;;2.97;100.00;93542.50;4987575;28;19917;-57
2023/11/28 07:31:24;;;;;;;;;;;7.70;72.50;;;3.03;100.00;93550.38;4986861;28;19913;-58
2023/11/28 07:33:50;;;;;;;;;;;7.70;72.50;;;2.99;100.00;93550.91;4989090;28;19916;-58
2023/11/28 07:36:16;;;;;;;;;;;7.70;72.40;;;3.00;100.00;93544.59;4987767;28;20008;-58
2023/11/28 07:38:44;;;;;;;;;;;7.80;72.50;;;2.97;100.00;93552.22;4990773;28;20000;-53
2023/11/28 07:41:17;;;;;;;;;;;7.80;72.50;;;2.99;100.00;93564.06;4990898;28;19921;-58
2023/11/28 07:43:44;;;;;;;;;;;7.80;72.50;;;2.93;100.00;93556.44;4984054;28;20357;-55
2023/11/28 07:46:10;;;;;;;;;;;7.70;72.40;;;2.99;100.00;93561.44;4988950;28;19948;-56
2023/11/28 07:48:36;;;;;;;;;;;7.70;72.30;;;2.99;100.00;93568.53;4991032;28;20387;-58
2023/11/28 07:51:03;;;;;;;;;;;7.80;72.40;;;2.98;100.00;93574.88;4985863;28;19917;-58
2023/11/28 07:53:28;;;;;;;;;;;7.80;72.40;;;2.99;100.00;93579.84;4988904;28;19909;-56
2023/11/28 07:55:54;;;;;;;;;;;7.80;72.30;;;3.04;100.00;93589.59;4986619;28;20378;-54
2023/11/28 07:58:20;;;;;;;;;;;7.90;72.40;;;3.09;100.00;93596.66;4992602;28;19914;-58
2023/11/28 08:00:46;;;;;;;;;;;7.80;72.30;;;3.08;100.00;93585.38;4987524;28;20004;-58
2023/11/28 08:03:11;;;;;;;;;;;7.90;72.40;;;3.10;100.00;93592.97;4985312;28;19952;-52
2023/11/28 08:05:37;;;;;;;;;;;7.90;72.40;;;3.13;100.00;93593.22;4985615;28;20036;-55
2023/11/28 08:08:03;;;;;;;;;;;7.90;72.30;;;3.19;100.00;93599.28;4984994;28;19917;-58
2023/11/28 08:10:29;;;;;;;;;;;8.00;72.40;;;3.16;100.00;93605.84;4984764;28;19917;-54
2023/11/28 08:12:55;;;;;;;;;;;8.00;72.30;;;3.14;100.00;93601.94;4986229;28;19913;-56
2023/11/28 08:15:22;;;;;;;;;;;8.00;72.30;;;3.11;100.00;93603.25;4990150;28;19916;-54
2023/11/28 08:17:47;;;;;;;;;;;8.00;72.20;;;3.15;100.00;93609.53;4983468;28;19945;-56
2023/11/28 08:20:13;;;;;;;;;;;8.00;72.10;;;3.11;100.00;93613.78;4988631;28;20333;-55
2023/11/28 08:22:39;;;;;;;;;;;8.10;72.30;;;3.09;100.00;93620.34;4980918;28;19953;-56
2023/11/28 08:25:05;;;;;;;;;;;8.00;72.10;;;3.15;100.00;93619.28;4989266;28;20379;-57
2023/11/28 08:27:31;;;;;;;;;;;8.00;72.10;;;3.07;100.00;93622.44;4984788;28;19948;-56
2023/11/28 08:29:57;;;;;;;;;;;8.00;72.00;;;3.08;100.00;93616.94;4990814;28;19949;-56
2023/11/28 08:32:23;;;;;;;;;;;8.00;72.00;;;3.09;100.00;93631.66;4989754;28;20328;-58
2023/11/28 08:34:49;;;;;;;;;;;8.00;72.00;;;3.13;100.00;93631.91;4991321;28;19909;-53
2023/11/28 08:37:15;;;;;;;;;;;8.10;72.00;;;3.09;100.00;93641.38;4994837;28;19944;-56
2023/11/28 08:39:41;;;;;;;;;;;8.10;72.00;;;3.11;100.00;93637.44;4994232;28;19913;-55
2023/11/28 08:42:06;;;;;;;;;;;8.10;71.90;;;3.06;100.00;93649.81;4992569;28;19925;-57
2023/11/28 08:44:32;;;;;;;;;;;8.10;71.90;;;3.09;100.00;93657.97;4992826;28;19967;-54
2023/11/28 08:46:58;;;;;;;;;;;8.10;71.80;;;3.16;100.00;93657.69;4990617;28;19909;-57
2023/11/28 08:49:24;;;;;;;;;;;8.10;71.80;;;3.06;100.00;93669.00;4992512;28;19917;-56
2023/11/28 08:51:51;;;;;;;;;;;8.10;71.80;;;3.10;100.00;93675.31;4994021;28;19913;-58
2023/11/28 08:54:17;;;;;;;;;;;8.10;71.80;;;3.05;100.00;93683.22;4992244;28;19910;-56
2023/11/28 08:56:43;;;;;;;;;;;8.10;71.80;;;3.06;100.00;93687.44;4990836;28;19924;-58
2023/11/28 08:59:09;;;;;;;;;;;8.10;71.80;;;3.13;100.00;93690.56;4992405;28;19909;-57
2023/11/28 09:01:35;;;;;;;;;;;8.10;71.80;;;3.09;100.00;93699.28;4992030;28;19909;-56
2023/11/28 09:04:01;;;;;;;;;;;8.10;71.80;;;2.97;100.00;93692.41;4987413;28;20292;-57
2023/11/28 09:06:28;;;;;;;;;;;8.10;71.70;;;3.05;100.00;93698.22;4994315;28;19913;-53
2023/11/28 09:08:54;;;;;;;;;;;8.10;71.60;;;3.11;100.00;93703.22;4977044;28;19915;-55
2023/11/28 09:11:20;;;;;;;;;;;8.20;71.70;;;2.92;100.00;93705.59;4993842;28;19959;-56
2023/11/28 09:13:46;;;;;;;;;;;8.20;71.60;;;2.94;100.00;93708.72;4993162;28;19909;-56
2023/11/28 09:16:12;;;;;;;;;;;8.20;71.40;;;3.02;100.00;93723.22;4993558;28;20387;-57
2023/11/28 09:18:41;;;;;;;;;;;8.20;71.50;;;3.01;100.00;93719.78;4993946;28;20008;-56
2023/11/28 09:21:08;;;;;;;;;;;8.20;71.30;;;3.04;100.00;93728.19;4992723;28;19916;-54
2023/11/28 09:23:35;;;;;;;;;;;8.20;71.30;;;2.98;100.00;93738.72;4987218;28;19909;-57
2023/11/28 09:26:01;;;;;;;;;;;8.20;71.40;;;2.90;100.00;93741.06;5003825;28;19909;-56
2023/11/28 09:28:26;;;;;;;;;;;8.20;71.30;;;2.84;100.00;93740.28;4990439;28;19982;-56
2023/11/28 09:30:52;;;;;;;;;;;8.10;71.20;;;2.91;100.00;93748.69;4991356;28;19913;-57
2023/11/28 09:33:18;;;;;;;;;;;8.10;71.20;;;2.90;100.00;93762.91;4992925;28;19962;-56
2023/11/28 09:35:47;;;;;;;;;;;8.00;71.20;;;2.93;100.00;93765.00;4990896;28;19941;-55
2023/11/28 09:38:13;;;;;;;;;;;8.00;71.30;;;2.95;100.00;93772.66;4991408;28;19909;-57
2023/11/28 09:40:39;;;;;;;;;;;8.00;71.40;;;3.01;100.00;93784.78;4989591;28;19959;-57
2023/11/28 09:43:05;;;;;;;;;;;8.00;71.50;;;2.95;100.00;93780.56;4988958;28;20359;-57
2023/11/28 09:45:37;;;;;;;;;;;7.90;71.50;;;2.96;100.00;93796.06;4991663;28;19932;-57
2023/11/28 09:48:10;;;;;;;;;;;7.90;71.50;;;2.98;100.00;93793.97;4990385;28;19910;-56
2023/11/28 09:50:38;;;;;;;;;;;7.90;71.60;;;2.91;100.00;93792.63;4992907;28;20012;-58
2023/11/28 09:53:05;;;;;;;;;;;7.90;71.60;;;2.91;100.00;93793.41;4991266;28;19941;-57
2023/11/28 09:55:32;;;;;;;;;;;7.90;71.60;;;2.97;100.00;93802.09;4992596;28;20000;-56
2023/11/28 09:58:03;;;;;;;;;;;7.90;71.60;;;2.94;100.00;93800.00;4992709;28;19933;-57
2023/11/28 10:00:35;;;;;;;;;;;7.90;71.60;;;2.89;100.00;93802.63;4993016;28;19913;-53
2023/11/28 10:03:04;;;;;;;;;;;8.00;71.50;;;2.89;100.00;93800.00;4980794;28;19932;-57
2023/11/28 10:05:30;;;;;;;;;;;8.00;71.40;;;2.99;100.00;93806.06;4994907;28;19939;-54
2023/11/28 10:07:57;;;;;;;;;;;8.00;71.30;;;2.99;100.00;93816.59;4990286;28;20499;-53
2023/11/28 10:10:24;;;;;;;;;;;8.10;71.40;;;2.83;100.00;93817.59;4994002;28;20265;-58
2023/11/28 10:12:52;;;;;;;;;;;8.00;71.20;;;2.83;100.00;93820.22;4993209;28;19918;-52
2023/11/28 10:15:20;;;;;;;;;;;8.00;71.20;;;2.78;100.00;93825.47;4992888;28;19913;-53
2023/11/28 10:17:48;;;;;;;;;;;8.00;71.10;;;2.80;100.00;93826.00;4989060;28;19910;-55
2023/11/28 10:20:14;;;;;;;;;;;7.90;71.20;;;2.75;100.00;93831.25;4993544;28;20386;-54
2023/11/28 10:22:52;;;;;;;;;;;7.90;71.20;;;2.70;100.00;93826.75;4994686;28;19948;-53
2023/11/28 10:25:22;;;;;;;;;;;7.80;71.10;;;2.75;100.00;93829.41;4993673;28;19959;-54
2023/11/28 10:27:49;;;;;;;;;;;7.80;71.20;;;2.82;100.00;93837.06;4991951;28;19913;-52
2023/11/28 10:30:16;;;;;;;;;;;7.80;71.30;;;2.84;100.00;93839.41;4993928;28;20364;-54
2023/11/28 10:32:43;;;;;;;;;;;7.80;71.40;;;2.84;100.00;93842.06;4976837;28;19914;-52
2023/11/28 10:35:09;;;;;;;;;;;7.80;71.50;;;2.84;100.00;93850.72;4994627;28;19920;-54
2023/11/28 10:37:36;;;;;;;;;;;7.70;71.40;;;2.79;100.00;93848.09;4991879;28;19976;-56
2023/11/28 10:40:10;;;;;;;;;;;7.70;71.40;;;2.75;100.00;93854.91;5002027;28;20436;-55
2023/11/28 10:42:39;;;;;;;;;;;7.70;71.50;;;2.66;100.00;93865.13;4985948;28;19917;-55
2023/11/28 10:45:09;;;;;;;;;;;7.70;71.40;;;2.60;100.00;93874.06;4988040;28;19952;-56
2023/11/28 10:47:41;;;;;;;;;;;7.70;71.30;;;2.58;100.00;93877.97;4986046;28;19914;-52
2023/11/28 10:50:09;;;;;;;;;;;7.60;71.20;;;2.56;100.00;93880.84;4992679;28;19909;-56
2023/11/28 10:52:39;;;;;;;;;;;7.60;71.20;;;2.47;100.00;93882.38;4990668;28;19929;-51
2023/11/28 10:55:18;;;;;;;;;;;7.50;71.10;;;2.31;100.00;93892.00;4986801;28;20004;-51
2023/11/28 10:58:05;;;;;;;;;;;7.40;70.80;;;2.24;100.00;93904.59;4987126;28;19909;-51
2023/11/28 11:00:38;;;;;;;;;;;7.30;70.80;;;2.10;100.00;93904.25;4988139;28;19909;-53
2023/11/28 11:03:04;;;;;;;;;;;7.20;71.00;;;2.08;100.00;93909.75;4991545;28;19980;-51
2023/11/28 11:05:31;;;;;;;;;;;7.20;71.10;;;2.14;100.00;93915.81;4987303;28;19909;-54
2023/11/28 11:07:58;;;;;;;;;;;7.20;71.30;;;2.11;100.00;93910.28;4989993;28;19909;-51
2023/11/28 11:10:27;;;;;;;;;;;7.20;71.30;;;2.13;100.00;93929.19;4992993;28;19916;-52
2023/11/28 11:13:36;;;;;;;;;;;7.20;71.30;;;2.20;100.00;93933.22;4988724;28;19917;-54
2023/11/28 11:16:22;;;;;;;;;;;7.20;71.30;;;2.22;100.00;93936.34;4990458;28;19922;-56
2023/11/28 11:18:52;;;;;;;;;;;7.20;71.50;;;2.25;100.00;93943.72;4990344;28;19913;-56
2023/11/28 11:21:56;;;;;;;;;;;7.30;71.50;;;2.25;100.00;93945.56;4985118;28;19966;-57